Time;durP1;ratioP1;P1;durP2;ratioP2;P2;SDS_P1;SDS_P2;PMS_P1;PMS_P2;Temp;Humidity;BMP_temperature;BMP_pressure;BME280_temperature;BME280_humidity;BME280_pressure;Samples;Min_cycle;Max_cycle;Signal;HPM_P1;HPM_P2
2022/07/30 00:00:36;;;;;;;21.60;13.93;;;23.80;99.90;;;;;;5054469;28;20079;-79
2022/07/30 00:03:01;;;;;;;21.70;13.15;;;23.70;99.90;;;;;;5054125;28;20482;-69
2022/07/30 00:05:28;;;;;;;21.08;14.13;;;23.60;99.90;;;;;;5053703;28;20049;-74
2022/07/30 00:07:53;;;;;;;17.60;13.40;;;23.40;99.90;;;;;;5047175;28;20108;-77
2022/07/30 00:10:21;;;;;;;22.70;14.70;;;23.50;99.90;;;;;;5036457;28;20474;-78
2022/07/30 00:12:48;;;;;;;27.58;14.30;;;23.40;99.90;;;;;;5034102;28;20013;-75
2022/07/30 00:15:14;;;;;;;22.42;14.05;;;23.40;99.90;;;;;;5052768;28;20053;-77
2022/07/30 00:17:39;;;;;;;28.95;15.93;;;23.50;99.90;;;;;;5054260;28;20468;-74
2022/07/30 00:20:06;;;;;;;23.45;14.48;;;23.80;99.90;;;;;;5053898;28;20068;-77
2022/07/30 00:22:34;;;;;;;31.92;15.27;;;;;;;;;;5054187;28;20108;-76
2022/07/30 00:25:00;;;;;;;22.55;15.27;;;23.20;99.90;;;;;;5045044;28;20028;-78
2022/07/30 00:27:26;;;;;;;20.75;14.65;;;23.20;99.90;;;;;;5033960;28;20013;-77
2022/07/30 00:29:51;;;;;;;20.73;15.10;;;23.20;99.90;;;;;;5016360;28;20029;-78
2022/07/30 00:32:17;;;;;;;20.92;14.80;;;23.20;99.90;;;;;;5028019;28;20044;-77
2022/07/30 00:34:43;;;;;;;25.52;15.80;;;23.30;99.90;;;;;;5053944;28;20490;-78
2022/07/30 00:37:09;;;;;;;21.73;13.93;;;23.40;99.90;;;;;;5054010;28;20017;-73
2022/07/30 00:39:35;;;;;;;22.40;13.18;;;23.40;99.90;;;;;;5049524;28;20030;-75
2022/07/30 00:42:03;;;;;;;21.80;13.93;;;23.50;99.90;;;;;;5033291;28;20035;-77
2022/07/30 00:44:29;;;;;;;19.45;14.77;;;23.60;99.90;;;;;;5034149;28;20037;-77
2022/07/30 00:46:55;;;;;;;22.50;13.10;;;23.60;99.90;;;;;;5026983;28;20166;-80
2022/07/30 00:49:22;;;;;;;22.77;14.52;;;23.60;99.90;;;;;;5039746;28;20071;-80
2022/07/30 00:51:48;;;;;;;21.20;15.10;;;23.60;99.90;;;;;;5035085;28;20025;-76
2022/07/30 00:54:14;;;;;;;23.17;15.30;;;23.60;99.90;;;;;;5036044;28;20411;-80
2022/07/30 00:56:41;;;;;;;20.27;14.77;;;23.50;99.90;;;;;;5035941;28;20021;-80
2022/07/30 00:59:07;;;;;;;22.77;14.10;;;23.50;99.90;;;;;;5053651;28;20057;-76
2022/07/30 01:01:33;;;;;;;22.40;14.73;;;23.60;99.90;;;;;;5035314;28;20541;-78
2022/07/30 01:03:59;;;;;;;20.48;14.60;;;23.50;99.90;;;;;;5039502;28;20049;-78
2022/07/30 01:06:25;;;;;;;24.50;14.60;;;23.50;99.90;;;;;;5052882;28;20174;-78
2022/07/30 01:08:53;;;;;;;20.48;15.02;;;23.40;99.90;;;;;;5052731;28;20024;-77
2022/07/30 01:11:19;;;;;;;28.90;15.43;;;23.30;99.90;;;;;;5052888;28;20017;-78
2022/07/30 01:13:45;;;;;;;25.77;13.80;;;23.30;99.90;;;;;;5031462;28;20025;-75
2022/07/30 01:16:12;;;;;;;21.77;15.15;;;23.20;99.90;;;;;;5051998;28;20070;-77
2022/07/30 01:21:37;;;;;;;21.33;14.52;;;23.30;99.90;;;;;;5034274;28;20069;-71
2022/07/30 01:24:29;;;;;;;22.17;15.65;;;23.30;99.90;;;;;;5018502;28;20033;-77
2022/07/30 01:26:56;;;;;;;23.30;14.38;;;23.10;99.90;;;;;;5031972;28;20032;-78
2022/07/30 01:29:24;;;;;;;24.50;13.27;;;23.10;99.90;;;;;;5014104;28;20030;-78
2022/07/30 01:31:54;;;;;;;31.08;14.80;;;23.10;99.90;;;;;;5014055;28;20034;-77
2022/07/30 01:34:21;;;;;;;24.38;13.95;;;23.10;99.90;;;;;;5030278;28;20036;-77
2022/07/30 01:36:49;;;;;;;21.83;13.20;;;23.10;99.90;;;;;;5030278;28;20032;-76
2022/07/30 01:39:17;;;;;;;20.67;14.30;;;;;;;;;;5031879;28;20026;-78
2022/07/30 01:41:43;;;;;;;24.38;13.93;;;23.00;99.90;;;;;;5030245;28;20052;-77
2022/07/30 01:44:12;;;;;;;22.00;15.10;;;23.10;99.90;;;;;;5029619;28;20060;-77
2022/07/30 01:46:39;;;;;;;22.08;14.82;;;23.10;99.90;;;;;;5031527;28;20115;-78
2022/07/30 01:49:07;;;;;;;23.70;14.30;;;;;;;;;;5030281;28;20030;-77
2022/07/30 01:51:35;;;;;;;19.15;14.25;;;;;;;;;;5030244;28;20033;-77
2022/07/30 01:54:01;;;;;;;20.10;13.68;;;23.00;99.90;;;;;;5029994;28;20025;-77
2022/07/30 01:56:29;;;;;;;21.33;14.00;;;23.00;99.90;;;;;;5031821;28;20025;-77
2022/07/30 01:58:57;;;;;;;21.98;13.75;;;23.00;99.90;;;;;;5013776;28;20032;-77
2022/07/30 02:01:27;;;;;;;17.35;13.45;;;;;;;;;;5029769;28;20049;-78
2022/07/30 02:04:01;;;;;;;25.73;15.90;;;;;;;;;;5028484;28;20049;-78
2022/07/30 02:06:39;;;;;;;26.98;15.35;;;22.70;99.90;;;;;;5028648;28;20033;-73
2022/07/30 02:09:08;;;;;;;33.17;15.85;;;22.80;99.90;;;;;;5029449;28;20025;-78
2022/07/30 02:14:32;;;;;;;25.27;15.43;;;22.80;99.90;;;;;;5032783;28;20031;-77
2022/07/30 02:17:01;;;;;;;21.33;16.38;;;22.80;99.90;;;;;;5030732;28;20024;-75
2022/07/30 02:19:35;;;;;;;23.52;15.27;;;22.80;99.90;;;;;;5028872;28;20468;-76
2022/07/30 02:22:09;;;;;;;23.88;16.67;;;22.90;99.90;;;;;;5012758;28;20069;-74
2022/07/30 02:24:37;;;;;;;21.70;16.70;;;22.80;99.90;;;;;;5030389;28;20044;-75
2022/07/30 02:27:08;;;;;;;24.58;16.08;;;22.90;99.90;;;;;;5030326;28;20018;-77
2022/07/30 02:29:36;;;;;;;21.45;14.63;;;22.90;99.90;;;;;;5012840;28;20022;-77
2022/07/30 02:32:08;;;;;;;25.52;16.48;;;22.90;99.90;;;;;;5030517;28;20025;-75
2022/07/30 02:34:38;;;;;;;22.88;16.00;;;22.80;99.90;;;;;;5030548;28;20029;-78
2022/07/30 02:37:06;;;;;;;21.95;16.13;;;22.80;99.90;;;;;;5033388;28;20030;-78
2022/07/30 02:39:35;;;;;;;21.98;16.05;;;22.80;99.90;;;;;;5029120;28;20022;-77
2022/07/30 02:42:03;;;;;;;24.23;15.70;;;22.80;99.90;;;;;;5012437;28;20562;-78
2022/07/30 02:44:30;;;;;;;23.77;17.63;;;22.80;99.90;;;;;;5012553;28;20026;-77
2022/07/30 02:46:57;;;;;;;29.65;19.63;;;22.80;99.90;;;;;;5029382;28;20057;-75
2022/07/30 02:49:50;;;;;;;23.75;18.20;;;;;;;;;;5027272;28;20422;-76
2022/07/30 02:52:17;;;;;;;21.77;16.80;;;;;;;;;;5030085;28;20018;-77
2022/07/30 02:54:44;;;;;;;24.33;18.35;;;;;;;;;;5029394;28;20044;-77
2022/07/30 02:57:12;;;;;;;21.75;17.38;;;;;;;;;;5013969;28;20033;-78
2022/07/30 02:59:40;;;;;;;28.33;18.08;;;;;;;;;;5029086;28;20461;-78
2022/07/30 03:02:08;;;;;;;24.45;17.77;;;22.10;99.90;;;;;;5012320;28;20488;-78
2022/07/30 03:04:36;;;;;;;23.92;17.42;;;22.10;99.90;;;;;;5012411;28;20042;-78
2022/07/30 03:07:04;;;;;;;21.85;17.70;;;22.30;99.90;;;;;;5030334;28;20029;-78
2022/07/30 03:09:30;;;;;;;25.30;18.40;;;22.30;99.90;;;;;;5028969;28;20028;-78
2022/07/30 03:11:57;;;;;;;23.58;18.05;;;22.30;99.90;;;;;;5012611;28;20026;-77
2022/07/30 03:14:23;;;;;;;21.70;16.77;;;22.30;99.90;;;;;;5032520;28;20021;-77
2022/07/30 03:16:54;;;;;;;25.20;16.73;;;22.30;99.90;;;;;;5016068;28;20044;-77
2022/07/30 03:19:22;;;;;;;22.67;17.13;;;22.40;99.90;;;;;;5033547;28;20033;-77
2022/07/30 03:21:51;;;;;;;21.52;17.27;;;22.40;99.90;;;;;;5033119;28;20045;-78
2022/07/30 03:24:23;;;;;;;22.40;18.20;;;22.40;99.90;;;;;;5032302;28;20497;-76
2022/07/30 03:26:51;;;;;;;25.30;17.98;;;22.20;99.90;;;;;;5032404;28;20044;-73
2022/07/30 03:29:18;;;;;;;26.52;17.65;;;22.20;99.90;;;;;;5033924;28;20036;-76
2022/07/30 03:31:45;;;;;;;23.52;16.52;;;22.40;99.90;;;;;;5033638;28;20508;-78
2022/07/30 03:34:11;;;;;;;20.33;16.17;;;22.50;99.90;;;;;;5032196;28;20030;-77
2022/07/30 03:36:40;;;;;;;21.70;17.23;;;22.50;99.90;;;;;;5033612;28;20056;-72
2022/07/30 03:39:07;;;;;;;29.25;16.42;;;22.50;99.90;;;;;;5033676;28;20020;-72
2022/07/30 03:41:35;;;;;;;20.90;17.20;;;22.60;99.90;;;;;;5031998;28;20068;-76
2022/07/30 03:44:01;;;;;;;20.42;15.70;;;22.80;99.90;;;;;;5015625;28;20018;-78
2022/07/30 03:46:30;;;;;;;22.63;15.88;;;22.90;99.90;;;;;;5032085;28;20439;-75
2022/07/30 03:48:56;;;;;;;23.27;17.00;;;23.30;99.90;;;;;;5031952;28;20482;-78
2022/07/30 03:51:23;;;;;;;22.35;16.33;;;23.30;99.90;;;;;;5032071;28;20029;-78
2022/07/30 03:53:51;;;;;;;23.55;17.45;;;23.30;99.90;;;;;;5031836;28;20017;-75
2022/07/30 03:56:36;;;;;;;22.13;17.02;;;23.30;99.90;;;;;;5034696;28;20044;-77
2022/07/30 03:59:25;;;;;;;23.50;15.45;;;23.30;99.90;;;;;;5032021;28;20099;-73
2022/07/30 04:01:51;;;;;;;27.77;16.42;;;23.20;99.90;;;;;;5033385;28;20535;-77
2022/07/30 04:04:34;;;;;;;28.02;16.15;;;23.20;99.90;;;;;;5031216;28;20095;-68
2022/07/30 04:07:01;;;;;;;25.73;16.25;;;23.00;99.90;;;;;;5031663;28;20079;-74
2022/07/30 04:09:27;;;;;;;25.30;16.00;;;23.10;99.90;;;;;;5031677;28;20124;-71
2022/07/30 04:11:54;;;;;;;20.80;16.05;;;23.20;99.90;;;;;;5035154;28;20063;-70
2022/07/30 04:14:24;;;;;;;27.33;15.80;;;23.20;99.90;;;;;;5014732;28;20480;-73
2022/07/30 04:16:57;;;;;;;24.17;15.95;;;23.20;99.90;;;;;;5015197;28;20384;-77
2022/07/30 04:19:30;;;;;;;31.13;16.87;;;23.20;99.90;;;;;;5012621;28;20037;-68
2022/07/30 04:21:59;;;;;;;22.67;17.02;;;23.30;99.90;;;;;;5029307;28;20649;-77
2022/07/30 04:24:27;;;;;;;26.85;15.98;;;23.40;99.90;;;;;;5040619;28;20377;-72
2022/07/30 04:26:54;;;;;;;21.98;15.88;;;23.40;99.90;;;;;;5028566;28;20025;-62
2022/07/30 04:29:21;;;;;;;20.88;15.88;;;23.70;99.90;;;;;;5052500;28;20054;-78
2022/07/30 04:31:47;;;;;;;27.23;15.32;;;24.00;99.90;;;;;;5034558;28;20036;-78
2022/07/30 04:34:46;;;;;;;30.45;16.08;;;;;;;;;;5037123;28;20711;-79
2022/07/30 04:37:15;;;;;;;21.17;14.57;;;25.30;99.90;;;;;;5053165;28;20056;-77
2022/07/30 04:39:42;;;;;;;27.83;14.93;;;;;;;;;;5035268;28;20021;-77
2022/07/30 04:42:08;;;;;;;23.30;14.02;;;;;;;;;;5035910;28;20036;-75
2022/07/30 04:44:35;;;;;;;17.63;12.90;;;26.30;97.90;;;;;;5053502;28;20025;-78
2022/07/30 04:47:34;;;;;;;21.50;14.75;;;;;;;;;;5051505;28;20044;-78
2022/07/30 04:50:26;;;;;;;24.05;14.27;;;27.10;99.90;;;;;;5041119;28;20044;-78
2022/07/30 04:52:54;;;;;;;37.00;15.48;;;;;;;;;;5030642;28;20025;-78
2022/07/30 04:55:29;;;;;;;23.08;14.88;;;;;;;;;;5034643;28;20471;-78
2022/07/30 04:57:56;;;;;;;28.95;16.13;;;;;;;;;;5051491;28;20124;-78
2022/07/30 05:00:22;;;;;;;30.38;18.92;;;;;;;;;;5034386;28;20475;-78
2022/07/30 05:02:52;;;;;;;33.60;16.30;;;29.00;92.90;;;;;;5034061;28;20037;-77
2022/07/30 05:05:20;;;;;;;32.35;14.23;;;;;;;;;;5033765;28;20045;-77
2022/07/30 05:07:47;;;;;;;23.45;14.15;;;;;;;;;;5051003;28;20382;-76
2022/07/30 05:10:16;;;;;;;26.75;14.60;;;28.40;99.90;;;;;;5048595;28;20055;-69
2022/07/30 05:12:43;;;;;;;21.45;14.43;;;;;;;;;;5024890;28;20036;-76
2022/07/30 05:15:13;;;;;;;18.25;13.65;;;28.20;99.90;;;;;;5050870;28;20021;-76
2022/07/30 05:17:39;;;;;;;18.35;14.02;;;28.20;99.90;;;;;;5025970;28;20084;-78
2022/07/30 05:20:08;;;;;;;21.23;14.77;;;28.10;97.50;;;;;;5030141;28;20021;-78
2022/07/30 05:22:52;;;;;;;20.20;14.77;;;27.90;99.90;;;;;;5034962;28;20063;-77
2022/07/30 05:25:20;;;;;;;19.90;14.50;;;27.50;97.30;;;;;;5035224;28;20379;-77
2022/07/30 05:27:50;;;;;;;20.67;14.52;;;27.50;98.20;;;;;;5035213;28;20055;-77
2022/07/30 05:30:16;;;;;;;21.30;15.60;;;27.40;97.50;;;;;;5035014;28;20033;-72
2022/07/30 05:32:46;;;;;;;22.90;14.82;;;27.50;97.80;;;;;;5028364;28;20499;-78
2022/07/30 05:35:12;;;;;;;21.98;15.57;;;27.60;98.60;;;;;;5049460;28;20021;-78
2022/07/30 05:37:38;;;;;;;24.10;15.35;;;27.70;97.70;;;;;;5034917;28;20064;-66
2022/07/30 05:40:05;;;;;;;22.13;14.70;;;27.70;97.50;;;;;;5035008;28;20506;-78
2022/07/30 05:42:49;;;;;;;23.67;14.25;;;27.60;97.40;;;;;;5034833;28;20091;-74
2022/07/30 05:45:15;;;;;;;23.30;15.93;;;27.60;97.50;;;;;;5053189;28;20020;-62
2022/07/30 05:47:40;;;;;;;21.30;14.55;;;27.40;97.20;;;;;;5038874;28;20083;-78
2022/07/30 05:50:07;;;;;;;19.80;14.68;;;27.40;97.70;;;;;;5026168;28;20033;-78
2022/07/30 05:52:33;;;;;;;19.98;14.93;;;27.40;99.70;;;;;;5027687;28;20032;-73
2022/07/30 05:55:09;;;;;;;21.63;15.05;;;27.50;99.50;;;;;;5034144;28;20586;-74
2022/07/30 05:57:49;;;;;;;25.67;16.15;;;27.60;99.90;;;;;;5036916;28;20452;-74
2022/07/30 06:00:15;;;;;;;26.50;16.17;;;27.50;99.90;;;;;;5034412;28;20064;-78
2022/07/30 06:02:51;;;;;;;25.30;16.02;;;27.70;99.90;;;;;;5034345;28;20029;-77
2022/07/30 06:05:49;;;;;;;24.92;15.25;;;27.70;99.90;;;;;;4990097;28;20048;-78
2022/07/30 06:08:15;;;;;;;23.30;15.15;;;27.90;99.90;;;;;;4974205;28;20117;-79
2022/07/30 06:10:40;;;;;;;21.42;15.07;;;28.40;99.90;;;;;;4973045;28;20027;-78
2022/07/30 06:13:08;;;;;;;22.67;16.23;;;;;;;;;;4989452;28;20034;-77
2022/07/30 06:15:36;;;;;;;25.08;16.60;;;;;;;;;;4972505;28;20037;-78
2022/07/30 06:18:02;;;;;;;24.33;17.70;;;28.40;99.90;;;;;;4990352;28;20122;-76
2022/07/30 06:20:54;;;;;;;29.52;15.75;;;28.70;99.40;;;;;;4987923;28;20039;-77
2022/07/30 06:23:40;;;;;;;32.20;14.60;;;28.80;99.90;;;;;;4989115;28;20085;-77
2022/07/30 06:26:16;;;;;;;27.33;15.82;;;;;;;;;;4973439;28;20033;-68
2022/07/30 06:28:42;;;;;;;19.92;14.57;;;28.70;99.90;;;;;;4973577;28;20030;-65
2022/07/30 06:31:29;;;;;;;19.60;14.48;;;28.70;99.90;;;;;;4990335;28;20090;-76
2022/07/30 06:33:55;;;;;;;27.80;14.15;;;28.70;99.90;;;;;;4989435;28;20054;-66
2022/07/30 06:36:22;;;;;;;25.13;15.55;;;28.80;99.90;;;;;;4990147;28;20126;-78
2022/07/30 06:38:59;;;;;;;18.85;15.57;;;;;;;;;;4990059;28;20085;-77
2022/07/30 06:41:45;;;;;;;23.05;14.63;;;29.00;99.90;;;;;;5025383;28;20495;-77
2022/07/30 06:44:14;;;;;;;17.88;14.50;;;;;;;;;;5031760;28;20029;-77
2022/07/30 06:47:00;;;;;;;37.97;14.35;;;29.20;99.70;;;;;;5050896;28;20147;-78
2022/07/30 06:49:26;;;;;;;20.90;14.27;;;29.10;98.60;;;;;;5054389;28;20035;-78
2022/07/30 06:51:53;;;;;;;20.60;13.98;;;;;;;;;;5035040;28;20029;-78
2022/07/30 06:54:19;;;;;;;18.05;13.38;;;;;;;;;;5035658;28;20510;-79
2022/07/30 06:56:57;;;;;;;19.30;13.57;;;;;;;;;;5054904;28;20166;-78
2022/07/30 06:59:23;;;;;;;17.45;12.65;;;;;;;;;;5055386;28;20025;-78
2022/07/30 07:02:15;;;;;;;19.60;13.63;;;31.10;94.70;;;;;;5051024;28;20556;-76
2022/07/30 07:05:14;;;;;;;20.55;13.15;;;30.20;96.20;;;;;;5032387;28;20041;-81
2022/07/30 07:07:44;;;;;;;19.27;14.05;;;31.10;96.10;;;;;;5018073;28;20532;-78
2022/07/30 07:10:15;;;;;;;18.27;13.40;;;30.20;96.40;;;;;;5023334;28;20112;-80
2022/07/30 07:12:44;;;;;;;20.55;13.38;;;30.20;94.80;;;;;;5033633;28;20041;-75
2022/07/30 07:15:11;;;;;;;17.10;13.43;;;30.10;94.80;;;;;;5032443;28;20040;-67
2022/07/30 07:17:39;;;;;;;19.20;13.23;;;30.00;94.40;;;;;;5031060;28;20081;-79
2022/07/30 07:20:05;;;;;;;19.08;13.30;;;29.80;90.20;;;;;;5032630;28;20034;-80
2022/07/30 07:22:41;;;;;;;17.63;12.85;;;29.60;88.00;;;;;;5015531;28;20060;-78
2022/07/30 07:25:07;;;;;;;17.48;12.48;;;29.70;89.60;;;;;;5032089;28;20025;-79
2022/07/30 07:27:35;;;;;;;20.13;13.82;;;29.50;90.20;;;;;;5015746;28;20575;-78
2022/07/30 07:30:03;;;;;;;16.90;13.38;;;29.50;84.90;;;;;;5015958;28;20111;-76
2022/07/30 07:32:29;;;;;;;24.67;12.95;;;29.30;88.00;;;;;;5016733;28;20032;-75
2022/07/30 07:34:56;;;;;;;21.45;13.80;;;29.20;88.40;;;;;;5021158;28;20061;-78
2022/07/30 07:37:22;;;;;;;21.67;12.82;;;29.10;90.20;;;;;;5031768;28;20481;-77
2022/07/30 07:39:48;;;;;;;19.45;13.20;;;29.10;87.00;;;;;;5034131;28;20387;-78
2022/07/30 07:42:14;;;;;;;19.63;13.45;;;29.10;88.40;;;;;;5036884;28;20037;-78
2022/07/30 07:44:42;;;;;;;26.95;12.70;;;29.20;89.50;;;;;;5031558;28;20029;-78
2022/07/30 07:47:08;;;;;;;17.25;12.07;;;29.20;88.50;;;;;;5036532;28;20044;-78
2022/07/30 07:49:40;;;;;;;16.02;12.32;;;29.30;86.20;;;;;;5035861;28;20075;-77
2022/07/30 07:52:06;;;;;;;17.33;12.52;;;29.20;88.10;;;;;;5036206;28;20395;-67
2022/07/30 07:54:32;;;;;;;18.88;11.95;;;29.20;87.90;;;;;;5020532;28;20059;-79
2022/07/30 07:56:58;;;;;;;17.42;12.60;;;29.20;88.20;;;;;;5052936;28;20029;-79
2022/07/30 07:59:35;;;;;;;17.02;12.05;;;29.40;88.20;;;;;;5036103;28;20025;-78
2022/07/30 08:02:02;;;;;;;28.75;11.98;;;29.50;88.20;;;;;;5036250;28;20044;-75
2022/07/30 08:04:51;;;;;;;18.25;11.48;;;29.50;90.00;;;;;;5035831;28;20133;-77
2022/07/30 08:07:26;;;;;;;18.73;12.38;;;29.60;91.20;;;;;;5053084;28;20390;-65
2022/07/30 08:09:57;;;;;;;20.88;12.85;;;29.60;85.80;;;;;;5038807;28;20577;-80
2022/07/30 08:12:33;;;;;;;18.20;11.70;;;;;;;;;;5036645;28;20546;-80
2022/07/30 08:15:18;;;;;;;19.88;12.70;;;;;;;;;;5054586;28;20041;-80
2022/07/30 08:18:02;;;;;;;21.58;12.38;;;;;;;;;;5054996;28;20510;-81
2022/07/30 08:20:38;;;;;;;19.73;13.13;;;;;;;;;;5036501;28;20036;-81
2022/07/30 08:23:05;;;;;;;16.20;12.50;;;31.50;75.50;;;;;;5034341;28;20558;-83
2022/07/30 08:25:31;;;;;;;19.13;12.77;;;31.60;92.10;;;;;;5014844;28;20523;-82
2022/07/30 08:27:59;;;;;;;16.85;12.32;;;30.50;82.70;;;;;;5051366;28;20167;-80
2022/07/30 08:30:25;;;;;;;17.52;11.63;;;31.10;89.40;;;;;;5036349;28;20025;-81
2022/07/30 08:32:51;;;;;;;14.60;11.30;;;31.30;88.30;;;;;;5036302;28;20040;-81
2022/07/30 08:35:17;;;;;;;21.05;12.55;;;31.40;76.80;;;;;;5036332;28;20025;-81
2022/07/30 08:37:43;;;;;;;17.67;12.30;;;31.50;76.20;;;;;;5036300;28;20021;-82
2022/07/30 08:40:10;;;;;;;14.00;10.93;;;31.60;75.90;;;;;;5036110;28;20021;-81
2022/07/30 08:42:47;;;;;;;14.27;10.82;;;31.60;73.30;;;;;;5035242;28;20087;-79
2022/07/30 08:45:16;;;;;;;17.67;11.55;;;31.60;72.70;;;;;;5035315;28;20112;-82
2022/07/30 08:47:45;;;;;;;20.77;10.60;;;31.70;70.90;;;;;;5053412;28;20027;-82
2022/07/30 08:50:12;;;;;;;13.77;9.52;;;31.70;70.50;;;;;;5053917;28;20044;-80
2022/07/30 08:52:57;;;;;;;13.63;9.82;;;;;;;;;;5017599;28;20031;-77
2022/07/30 08:55:24;;;;;;;12.95;9.68;;;31.80;70.10;;;;;;5026640;28;20391;-73
2022/07/30 08:57:50;;;;;;;16.00;11.40;;;32.00;73.80;;;;;;5032818;28;20487;-81
2022/07/30 09:00:17;;;;;;;14.65;11.48;;;31.80;77.20;;;;;;5035931;28;20039;-79
2022/07/30 09:02:44;;;;;;;15.38;12.30;;;31.90;77.00;;;;;;5052937;28;20033;-80
2022/07/30 09:05:11;;;;;;;18.13;10.77;;;31.60;78.10;;;;;;5053244;28;20041;-80
2022/07/30 09:07:37;;;;;;;15.52;10.57;;;33.00;80.30;;;;;;5034697;28;20082;-81
2022/07/30 09:10:07;;;;;;;22.52;11.32;;;31.90;77.40;;;;;;5034774;28;20081;-81
2022/07/30 09:12:37;;;;;;;17.00;10.40;;;32.00;76.90;;;;;;5034640;28;20120;-82
2022/07/30 09:15:05;;;;;;;21.20;10.85;;;31.90;76.50;;;;;;5035226;28;20064;-79
2022/07/30 09:17:48;;;;;;;15.75;10.50;;;31.90;76.60;;;;;;5023639;28;20036;-81
2022/07/30 09:20:14;;;;;;;19.23;11.95;;;;;;;;;;5053310;28;20029;-80
2022/07/30 09:22:42;;;;;;;19.17;10.88;;;;;;;;;;5035551;28;20029;-82
2022/07/30 09:25:44;;;;;;;17.95;11.00;;;;;;;;;;5053499;28;20086;-80
2022/07/30 09:28:32;;;;;;;16.02;10.13;;;31.70;94.30;;;;;;5053538;28;20094;-81
2022/07/30 09:31:14;;;;;;;14.13;10.57;;;31.70;94.70;;;;;;5052478;28;20037;-82
2022/07/30 09:34:27;;;;;;;16.52;12.00;;;31.90;93.70;;;;;;5027707;28;20098;-79
2022/07/30 09:36:53;;;;;;;13.40;10.60;;;31.90;94.60;;;;;;5053151;28;20064;-81
2022/07/30 09:39:35;;;;;;;13.63;10.82;;;31.90;94.50;;;;;;5053006;28;20117;-81
2022/07/30 09:42:28;;;;;;;16.45;11.30;;;32.20;77.00;;;;;;5051649;28;20613;-81
2022/07/30 09:45:14;;;;;;;13.05;10.40;;;32.00;76.80;;;;;;5057825;28;20393;-80
2022/07/30 09:47:49;;;;;;;11.88;9.55;;;32.00;76.10;;;;;;5063152;28;20438;-81
2022/07/30 09:50:22;;;;;;;19.40;10.77;;;32.10;82.40;;;;;;5048507;28;20029;-81
2022/07/30 09:52:50;;;;;;;13.57;10.00;;;31.90;80.80;;;;;;5050650;28;20355;-81
2022/07/30 09:55:32;;;;;;;14.30;10.57;;;32.10;79.70;;;;;;5046264;28;20501;-81
2022/07/30 09:58:04;;;;;;;13.15;10.20;;;32.00;79.40;;;;;;5062852;28;20021;-81
2022/07/30 10:00:32;;;;;;;16.15;10.35;;;32.20;76.60;;;;;;5054787;28;20090;-78
2022/07/30 10:03:24;;;;;;;13.10;9.45;;;31.70;83.30;;;;;;5051040;28;20409;-77
2022/07/30 10:06:09;;;;;;;16.42;9.73;;;31.80;70.20;;;;;;5026566;28;20048;-80
2022/07/30 10:08:48;;;;;;;12.93;9.05;;;31.80;70.40;;;;;;5024925;28;20391;-81
2022/07/30 10:11:17;;;;;;;19.33;10.27;;;31.90;69.70;;;;;;5052520;28;20040;-81
2022/07/30 10:13:45;;;;;;;13.55;8.70;;;32.00;70.30;;;;;;5043004;28;20467;-79
2022/07/30 10:16:12;;;;;;;12.75;9.52;;;31.90;70.30;;;;;;5050503;28;20449;-80
2022/07/30 10:18:41;;;;;;;12.63;8.60;;;31.90;70.10;;;;;;5026248;28;20097;-62
2022/07/30 10:21:36;;;;;;;13.95;8.50;;;32.10;81.00;;;;;;5005842;28;20045;-70
2022/07/30 10:24:09;;;;;;;13.90;8.13;;;32.10;88.10;;;;;;5009822;28;20046;-80
2022/07/30 10:26:55;;;;;;;12.07;7.75;;;32.00;86.40;;;;;;4985931;28;20039;-80
2022/07/30 10:29:44;;;;;;;13.05;7.97;;;31.80;85.50;;;;;;4983510;28;20038;-74
2022/07/30 10:32:10;;;;;;;10.75;7.10;;;32.20;82.50;;;;;;4989751;28;20109;-79
2022/07/30 10:34:37;;;;;;;18.23;7.45;;;32.10;72.50;;;;;;4985474;28;20045;-72
2022/07/30 10:37:04;;;;;;;10.57;7.75;;;32.20;72.70;;;;;;4984598;28;20037;-79
2022/07/30 10:39:38;;;;;;;13.90;7.90;;;;;;;;;;4986296;28;20031;-80
2022/07/30 10:42:19;;;;;;;17.55;7.53;;;32.30;68.40;;;;;;4976414;28;20052;-62
2022/07/30 10:45:13;;;;;;;14.15;7.32;;;32.40;67.90;;;;;;4999300;28;20141;-79
2022/07/30 10:47:39;;;;;;;12.80;8.00;;;32.30;67.60;;;;;;4987713;28;20030;-82
2022/07/30 10:50:16;;;;;;;10.90;6.82;;;32.40;67.60;;;;;;4987228;28;20038;-82
2022/07/30 10:52:42;;;;;;;11.90;7.70;;;32.60;83.00;;;;;;4986468;28;20576;-81
2022/07/30 10:55:12;;;;;;;9.57;7.57;;;32.20;74.10;;;;;;4981331;28;20134;-81
2022/07/30 10:57:59;;;;;;;13.97;7.40;;;32.10;71.90;;;;;;4980739;28;20424;-82
2022/07/30 11:00:27;;;;;;;11.50;6.45;;;32.20;72.70;;;;;;4993310;28;20358;-80
2022/07/30 11:03:15;;;;;;;12.50;7.72;;;32.20;70.80;;;;;;4993905;28;20026;-81
2022/07/30 11:05:42;;;;;;;9.57;6.82;;;32.10;76.10;;;;;;5015210;28;20164;-81
2022/07/30 11:08:31;;;;;;;10.82;7.50;;;32.10;68.50;;;;;;5015162;28;20049;-77
2022/07/30 11:10:57;;;;;;;10.25;6.63;;;31.80;72.40;;;;;;5015121;28;20080;-81
2022/07/30 11:13:51;;;;;;;12.27;6.85;;;31.90;72.60;;;;;;5014656;28;20030;-82
2022/07/30 11:16:19;;;;;;;12.45;7.00;;;31.90;68.80;;;;;;5015021;28;20040;-79
2022/07/30 11:19:04;;;;;;;9.70;6.47;;;32.10;69.20;;;;;;5014885;28;20017;-81
2022/07/30 11:21:31;;;;;;;9.52;6.70;;;32.10;68.30;;;;;;5015074;28;20030;-82
2022/07/30 11:23:58;;;;;;;9.13;6.35;;;32.20;71.50;;;;;;5014693;28;20041;-81
2022/07/30 11:26:40;;;;;;;9.20;6.25;;;32.30;70.20;;;;;;5013427;28;20392;-79
2022/07/30 11:29:26;;;;;;;10.13;5.85;;;32.40;73.30;;;;;;5013933;28;20037;-77
2022/07/30 11:31:53;;;;;;;12.25;6.10;;;32.30;70.60;;;;;;5014455;28;20395;-81
2022/07/30 11:34:19;;;;;;;9.55;6.13;;;32.40;72.10;;;;;;5014062;28;20360;-79
2022/07/30 11:37:16;;;;;;;9.52;5.68;;;32.20;70.80;;;;;;5014446;28;20036;-81
2022/07/30 11:39:54;;;;;;;10.98;6.68;;;32.00;68.20;;;;;;5010998;28;20030;-80
2022/07/30 11:42:33;;;;;;;10.85;5.80;;;32.20;68.20;;;;;;5013953;28;20034;-79
2022/07/30 11:45:14;;;;;;;11.85;5.32;;;32.00;68.00;;;;;;5011569;28;20065;-78
2022/07/30 11:47:45;;;;;;;8.88;5.03;;;32.10;66.80;;;;;;5014054;28;20014;-80
2022/07/30 11:50:20;;;;;;;8.60;5.07;;;32.00;65.80;;;;;;5013525;28;20045;-79
2022/07/30 11:53:09;;;;;;;13.93;5.53;;;32.10;67.30;;;;;;5013707;28;20510;-75
2022/07/30 11:55:41;;;;;;;6.00;4.63;;;32.20;65.80;;;;;;5013909;28;20034;-75
2022/07/30 11:58:20;;;;;;;;;;;32.30;66.50;;;;;;5013896;28;20022;-76
2022/07/30 12:00:47;;;;;;;11.00;5.50;;;;;;;;;;5013461;28;19909;-79
2022/07/30 12:03:16;;;;;;;10.63;5.65;;;32.80;64.40;;;;;;5013289;28;20045;-78
2022/07/30 12:05:43;;;;;;;8.38;4.60;;;32.90;66.60;;;;;;5013360;28;20034;-78
2022/07/30 12:08:11;;;;;;;9.70;5.50;;;32.70;66.60;;;;;;5012006;28;20021;-78
2022/07/30 12:10:39;;;;;;;7.85;4.40;;;32.70;65.30;;;;;;5010986;28;20097;-81
2022/07/30 12:13:11;;;;;;;7.28;4.82;;;32.60;64.30;;;;;;5012453;28;20731;-80
2022/07/30 12:15:41;;;;;;;9.43;4.75;;;32.60;66.20;;;;;;4995599;28;20030;-78
2022/07/30 12:18:10;;;;;;;10.02;4.65;;;32.40;65.10;;;;;;4995174;28;20053;-80
2022/07/30 12:20:36;;;;;;;7.15;4.50;;;32.70;65.70;;;;;;5013402;28;20060;-81
2022/07/30 12:23:02;;;;;;;6.88;4.30;;;32.80;67.30;;;;;;5013344;28;20052;-78
2022/07/30 12:25:28;;;;;;;7.97;4.97;;;32.70;66.90;;;;;;5013240;28;20075;-81
2022/07/30 12:27:54;;;;;;;8.05;4.63;;;32.50;68.30;;;;;;5012690;28;20093;-77
2022/07/30 12:30:20;;;;;;;7.15;4.45;;;32.60;67.90;;;;;;5013028;28;20037;-80
2022/07/30 12:32:46;;;;;;;12.50;5.50;;;32.90;71.20;;;;;;5013383;28;20041;-78
2022/07/30 12:35:12;;;;;;;8.45;5.50;;;32.80;69.90;;;;;;5013149;28;20026;-81
2022/07/30 12:37:39;;;;;;;8.90;5.68;;;32.90;79.20;;;;;;5013060;28;20029;-78
2022/07/30 12:40:12;;;;;;;9.18;5.32;;;33.00;79.30;;;;;;4997288;28;20033;-81
2022/07/30 12:42:52;;;;;;;8.88;5.97;;;32.90;79.00;;;;;;5011400;28;20022;-79
2022/07/30 12:45:30;;;;;;;7.85;5.00;;;32.60;78.20;;;;;;5012933;28;20048;-75
2022/07/30 12:47:57;;;;;;;7.53;5.07;;;32.60;75.90;;;;;;5012254;28;20037;-74
2022/07/30 12:50:23;;;;;;;9.00;5.18;;;32.40;77.70;;;;;;5003645;28;20029;-73
2022/07/30 12:52:51;;;;;;;8.68;5.07;;;32.00;62.30;;;;;;4992583;28;20072;-66
2022/07/30 12:55:18;;;;;;;14.30;4.78;;;32.00;62.80;;;;;;5006692;28;20057;-72
2022/07/30 12:58:04;;;;;;;6.50;4.72;;;31.80;62.60;;;;;;5010360;28;20014;-77
2022/07/30 13:00:51;;;;;;;7.15;4.80;;;31.80;65.80;;;;;;5012685;28;20025;-76
2022/07/30 13:03:21;;;;;;;8.30;5.55;;;;;;;;;;4999063;28;20500;-82
2022/07/30 13:05:48;;;;;;;6.57;5.07;;;;;;;;;;5012967;28;20092;-81
2022/07/30 13:08:14;;;;;;;11.88;5.70;;;31.30;63.50;;;;;;5012209;28;20038;-81
2022/07/30 13:11:00;;;;;;;11.10;6.05;;;31.30;64.50;;;;;;5012532;28;20029;-80
2022/07/30 13:13:27;;;;;;;8.07;5.28;;;;;;;;;;5012664;28;20033;-81